DGLY weather

Yendi Airport
Yendi, Northern Region, Ghana

Public forecast

Using degrees Celsius for public forecast. Weather courtesy of forecast.io.

METAR (pilot weather report)

Report is more than 6 hours old.

Closest report is Tamale Airport, 51.5 nm (95.3 km) W. Retrieved 2019/02/02 17:00 UTC (4 months ago):

DGLE 021700Z 00000KT 8000 36/18 QNH1009 NOSIG

TAF (pilot weather forecast)

Closest forecast is Niamtougou International Airport, 68.1 nm (126.0 km) ENE. Retrieved 2019/05/26 06:33 UTC (4 hours ago):

TAF TAF DXNG 260500Z 2606/2706 VRB05KT 9999 FEW008 PROB30 TEMPO 2614/2620 TS BKN008 FEW018CB